Time;durP1;ratioP1;P1;durP2;ratioP2;P2;SDS_P1;SDS_P2;PMS_P1;PMS_P2;Temp;Humidity;BMP_temperature;BMP_pressure;BME280_temperature;BME280_humidity;BME280_pressure;Samples;Min_cycle;Max_cycle;Signal;HPM_P1;HPM_P2
2022/11/11 00:01:39;;;;;;;15.32;6.85;;;11.40;99.90;;;;;;4146442;28;20184;-93
2022/11/11 00:03:58;;;;;;;12.52;7.80;;;11.60;99.90;;;;;;4146505;28;20211;-93
2022/11/11 00:06:17;;;;;;;13.95;7.30;;;11.60;99.90;;;;;;4146455;28;20180;-94
2022/11/11 00:08:36;;;;;;;13.43;7.72;;;11.50;99.90;;;;;;4146641;28;20754;-94
2022/11/11 00:11:05;;;;;;;16.60;8.02;;;11.40;99.90;;;;;;4146191;28;20188;-93
2022/11/11 00:13:24;;;;;;;17.70;7.53;;;11.60;99.90;;;;;;4145939;28;20251;-93
2022/11/11 00:15:43;;;;;;;20.48;8.15;;;11.60;99.90;;;;;;4146279;28;20220;-92
2022/11/11 00:26:01;;;;;;;17.42;7.43;;;11.30;99.90;;;;;;4133359;28;20271;-93
2022/11/11 00:28:20;;;;;;;19.30;7.80;;;11.40;99.90;;;;;;4146314;28;20179;-91
2022/11/11 00:30:39;;;;;;;19.30;7.50;;;11.40;99.90;;;;;;4146155;28;20249;-94
2022/11/11 00:32:58;;;;;;;20.65;7.22;;;11.30;99.90;;;;;;4145942;28;20231;-94
2022/11/11 00:38:06;;;;;;;15.20;7.28;;;11.30;99.90;;;;;;4133034;28;20216;-94
2022/11/11 00:40:25;;;;;;;14.93;7.15;;;11.30;99.90;;;;;;4146169;28;20589;-93
2022/11/11 00:42:45;;;;;;;17.92;7.20;;;11.20;99.90;;;;;;4145901;28;20323;-93
2022/11/11 00:45:05;;;;;;;14.02;7.45;;;11.30;99.90;;;;;;4146067;28;20183;-93
2022/11/11 00:53:17;;;;;;;14.65;7.57;;;11.20;99.90;;;;;;4132871;28;20713;-93
2022/11/11 00:55:36;;;;;;;12.80;6.95;;;11.10;99.90;;;;;;4145633;28;20272;-94
2022/11/11 00:57:55;;;;;;;12.20;6.50;;;11.20;99.90;;;;;;4145874;28;20247;-92
2022/11/11 01:00:14;;;;;;;17.80;7.60;;;11.10;99.90;;;;;;4145784;28;20184;-93
2022/11/11 01:02:34;;;;;;;17.25;7.80;;;11.10;99.90;;;;;;4146037;28;20246;-93
2022/11/11 01:04:53;;;;;;;21.30;7.40;;;11.10;99.90;;;;;;4145879;28;20176;-94
2022/11/11 01:07:12;;;;;;;18.27;7.30;;;11.00;99.90;;;;;;4146012;28;20191;-93
2022/11/11 01:09:32;;;;;;;16.20;7.45;;;11.00;99.90;;;;;;4145964;28;20179;-93
2022/11/11 01:11:53;;;;;;;10.80;5.68;;;11.00;99.90;;;;;;4146060;28;20757;-94
2022/11/11 01:14:12;;;;;;;16.65;6.85;;;11.00;99.90;;;;;;4145606;28;20759;-93
2022/11/11 01:16:31;;;;;;;15.20;7.15;;;11.20;99.90;;;;;;4145582;28;20336;-91
2022/11/11 01:18:52;;;;;;;16.15;7.47;;;11.40;99.90;;;;;;4145751;28;20191;-92
2022/11/11 01:21:15;;;;;;;16.48;7.35;;;11.20;99.90;;;;;;4145821;28;20561;-94
2022/11/11 01:23:36;;;;;;;12.13;6.38;;;11.20;99.90;;;;;;4145431;28;20228;-91
2022/11/11 01:26:08;;;;;;;17.95;7.53;;;11.20;99.90;;;;;;4145574;28;20180;-92
2022/11/11 01:28:28;;;;;;;14.18;6.65;;;11.10;99.90;;;;;;4145697;28;20187;-92
2022/11/11 01:30:47;;;;;;;14.35;7.32;;;11.00;99.90;;;;;;4145815;28;20254;-93
2022/11/11 01:33:08;;;;;;;14.07;6.78;;;11.00;99.90;;;;;;4145748;28;20291;-92
2022/11/11 01:35:28;;;;;;;19.00;7.07;;;11.00;99.90;;;;;;4145640;28;20184;-93
2022/11/11 01:37:50;;;;;;;16.83;7.30;;;11.00;99.90;;;;;;4145621;28;20612;-92
2022/11/11 01:40:12;;;;;;;14.40;7.05;;;11.20;99.90;;;;;;4145790;28;20175;-91
2022/11/11 01:42:52;;;;;;;22.90;7.80;;;11.20;99.90;;;;;;4145390;28;20187;-93
2022/11/11 01:45:51;;;;;;;18.30;7.43;;;11.00;99.90;;;;;;4145746;28;20223;-92
2022/11/11 01:50:58;;;;;;;14.60;8.23;;;10.90;99.90;;;;;;4133306;28;20221;-93
2022/11/11 01:53:21;;;;;;;14.93;7.80;;;10.90;99.90;;;;;;4148373;28;20239;-92
2022/11/11 01:55:40;;;;;;;14.93;7.85;;;10.80;99.90;;;;;;4148411;28;20180;-92
2022/11/11 01:58:05;;;;;;;19.67;8.27;;;10.70;99.90;;;;;;4148444;28;20707;-94
2022/11/11 02:00:24;;;;;;;15.55;7.85;;;10.80;99.90;;;;;;4148394;28;20263;-94
2022/11/11 02:02:57;;;;;;;17.45;7.47;;;11.00;99.90;;;;;;4148342;28;20199;-95
2022/11/11 02:08:01;;;;;;;15.77;7.35;;;11.00;99.90;;;;;;4135657;28;20268;-93
2022/11/11 02:10:26;;;;;;;15.20;7.80;;;11.00;99.90;;;;;;4148172;28;20220;-93
2022/11/11 02:15:23;;;;;;;14.43;8.15;;;10.90;99.90;;;;;;4135239;28;20181;-92
2022/11/11 02:17:45;;;;;;;15.43;8.23;;;11.00;99.90;;;;;;4148074;28;20227;-92
2022/11/11 02:20:07;;;;;;;16.92;8.20;;;11.10;99.90;;;;;;4148107;28;20703;-93
2022/11/11 02:22:37;;;;;;;14.43;7.57;;;11.00;99.90;;;;;;4148146;28;20307;-93
2022/11/11 02:24:58;;;;;;;21.02;8.48;;;11.00;99.90;;;;;;4147981;28;20187;-93
2022/11/11 02:27:19;;;;;;;15.45;8.13;;;11.10;99.90;;;;;;4147742;28;20579;-94
2022/11/11 02:29:38;;;;;;;13.63;8.52;;;11.10;99.90;;;;;;4147477;28;20704;-92
2022/11/11 02:31:58;;;;;;;15.07;7.63;;;11.10;99.90;;;;;;4147839;28;20227;-91
2022/11/11 02:34:17;;;;;;;16.40;8.40;;;10.80;99.90;;;;;;4148006;28;20187;-94
2022/11/11 02:36:38;;;;;;;15.55;8.38;;;10.60;99.90;;;;;;4147717;28;20192;-92
2022/11/11 02:38:58;;;;;;;14.20;7.47;;;10.60;99.90;;;;;;4148164;28;20597;-93
2022/11/11 02:43:55;;;;;;;15.32;7.78;;;10.50;99.90;;;;;;4134941;28;20543;-92
2022/11/11 02:46:14;;;;;;;14.55;7.35;;;10.70;99.90;;;;;;4147420;28;20247;-92
2022/11/11 02:48:33;;;;;;;16.83;7.72;;;10.70;99.90;;;;;;4147701;28;20243;-95
2022/11/11 02:50:55;;;;;;;15.48;7.40;;;10.80;99.90;;;;;;4147421;28;20200;-92
2022/11/11 02:53:15;;;;;;;15.57;6.68;;;10.80;99.90;;;;;;4147466;28;20573;-91
2022/11/11 02:55:34;;;;;;;14.27;7.50;;;10.70;99.90;;;;;;4147621;28;20211;-93
2022/11/11 02:57:53;;;;;;;11.77;6.70;;;10.70;99.90;;;;;;4147275;28;20285;-94
2022/11/11 03:00:13;;;;;;;19.27;7.05;;;10.80;99.90;;;;;;4147352;28;20220;-92
2022/11/11 03:02:32;;;;;;;14.93;6.95;;;10.90;99.90;;;;;;4146405;28;20215;-93
2022/11/11 03:04:52;;;;;;;15.73;6.38;;;10.90;99.90;;;;;;4147196;28;20589;-92
2022/11/11 03:07:11;;;;;;;11.93;6.80;;;10.90;99.90;;;;;;4147473;28;20199;-92
2022/11/11 03:09:33;;;;;;;17.55;6.40;;;10.80;99.90;;;;;;4146889;28;20299;-93
2022/11/11 03:11:52;;;;;;;13.55;7.18;;;10.90;99.90;;;;;;4147328;28;20186;-93
2022/11/11 03:14:11;;;;;;;12.57;6.50;;;10.80;99.90;;;;;;4147443;28;20215;-93
2022/11/11 03:19:09;;;;;;;10.30;6.05;;;10.60;99.90;;;;;;4134549;28;20197;-94
2022/11/11 03:21:29;;;;;;;12.93;7.05;;;10.80;99.90;;;;;;4147313;28;20184;-93
2022/11/11 03:23:48;;;;;;;13.20;6.82;;;10.90;99.90;;;;;;4147275;28;20234;-91
2022/11/11 03:26:08;;;;;;;16.70;7.05;;;10.80;99.90;;;;;;4134193;28;20208;-92
2022/11/11 03:28:27;;;;;;;12.75;6.43;;;10.80;99.90;;;;;;4147187;28;20180;-92
2022/11/11 03:30:49;;;;;;;13.93;7.28;;;10.90;99.90;;;;;;4146810;28;20188;-94
2022/11/11 03:33:09;;;;;;;18.77;7.00;;;11.00;99.90;;;;;;4146743;28;20219;-92
2022/11/11 03:35:29;;;;;;;19.13;7.13;;;10.90;99.90;;;;;;4147311;28;20215;-93
2022/11/11 03:40:26;;;;;;;12.45;7.28;;;10.50;99.90;;;;;;4133784;28;20195;-92
2022/11/11 03:42:48;;;;;;;20.05;7.80;;;10.70;99.90;;;;;;4146823;28;20200;-93
2022/11/11 03:45:07;;;;;;;14.32;7.55;;;10.80;99.90;;;;;;4146980;28;20188;-94
2022/11/11 03:47:28;;;;;;;17.17;7.60;;;10.70;99.90;;;;;;4146837;28;20215;-92
2022/11/11 03:49:50;;;;;;;13.55;7.35;;;11.00;99.90;;;;;;4146836;28;20180;-92
2022/11/11 03:52:10;;;;;;;17.95;7.55;;;10.90;99.90;;;;;;4146666;28;20192;-94
2022/11/11 03:54:29;;;;;;;16.65;7.28;;;10.80;99.90;;;;;;4146663;28;20203;-94
2022/11/11 03:56:48;;;;;;;20.02;8.15;;;10.80;99.90;;;;;;4146710;28;20255;-93
2022/11/11 03:59:07;;;;;;;12.48;7.45;;;10.70;99.90;;;;;;4146638;28;20184;-92
2022/11/11 04:11:58;;;;;;;18.13;7.38;;;10.70;99.90;;;;;;4133441;28;20566;-93
2022/11/11 04:16:55;;;;;;;12.00;6.82;;;10.70;99.90;;;;;;4133415;28;20223;-91
2022/11/11 04:21:54;;;;;;;12.10;6.70;;;10.80;99.90;;;;;;4133557;28;20381;-93
2022/11/11 04:26:58;;;;;;;14.45;7.47;;;10.90;99.90;;;;;;4133526;28;20265;-95
2022/11/11 04:29:28;;;;;;;14.05;7.57;;;11.00;99.90;;;;;;4146552;28;20176;-93
2022/11/11 04:34:26;;;;;;;18.77;7.50;;;10.90;99.90;;;;;;4133901;28;20738;-92
2022/11/11 04:36:45;;;;;;;12.38;6.78;;;10.80;99.90;;;;;;4145856;28;20184;-92
2022/11/11 04:41:42;;;;;;;13.13;7.53;;;10.70;99.90;;;;;;4133264;28;20590;-92
2022/11/11 04:46:41;;;;;;;13.88;7.07;;;10.50;99.90;;;;;;4133386;28;20235;-93
2022/11/11 04:49:00;;;;;;;12.60;8.32;;;10.50;99.90;;;;;;4146286;28;20696;-93
2022/11/11 04:51:19;;;;;;;14.43;7.70;;;10.50;99.90;;;;;;4146012;28;20208;-93
2022/11/11 04:53:39;;;;;;;16.08;7.53;;;10.40;99.90;;;;;;4146010;28;20207;-93
2022/11/11 04:58:35;;;;;;;15.77;8.00;;;10.50;99.90;;;;;;4132672;28;20239;-93
2022/11/11 05:00:54;;;;;;;15.20;7.40;;;10.40;99.90;;;;;;4146026;28;20235;-92
2022/11/11 05:03:14;;;;;;;20.60;7.28;;;10.30;99.90;;;;;;4146070;28;20723;-93
2022/11/11 05:08:54;;;;;;;13.68;7.18;;;10.40;99.90;;;;;;4145985;28;20263;-92
2022/11/11 05:10:51;;;;;;;14.25;7.63;;;10.30;99.90;;;;;;4132555;28;20267;-94
2022/11/11 05:21:21;;;;;;;16.33;7.65;;;10.40;99.90;;;;;;4133001;28;20184;-92
2022/11/11 05:26:18;;;;;;;13.18;6.55;;;10.50;99.90;;;;;;4134192;28;20205;-93
2022/11/11 05:28:37;;;;;;;14.63;7.25;;;10.50;99.90;;;;;;4149193;28;20179;-93
2022/11/11 05:30:56;;;;;;;18.15;8.35;;;10.60;99.90;;;;;;4148688;28;20223;-94
2022/11/11 05:33:15;;;;;;;17.05;7.38;;;10.50;99.90;;;;;;4148648;28;20235;-93
2022/11/11 05:35:35;;;;;;;15.38;7.60;;;10.40;99.90;;;;;;4148954;28;20179;-92
2022/11/11 05:38:22;;;;;;;15.40;7.28;;;10.20;99.90;;;;;;4148430;28;20735;-93
2022/11/11 05:40:41;;;;;;;14.32;7.30;;;10.30;99.90;;;;;;4148638;28;20219;-93
2022/11/11 05:43:00;;;;;;;13.80;7.28;;;10.40;99.90;;;;;;4148218;28;20276;-94
2022/11/11 05:45:20;;;;;;;16.25;8.02;;;10.30;99.90;;;;;;4148307;28;20260;-94
2022/11/11 05:47:39;;;;;;;15.02;7.20;;;10.20;99.90;;;;;;4148695;28;20243;-93
2022/11/11 05:49:58;;;;;;;16.30;7.05;;;10.10;99.90;;;;;;4148561;28;20235;-92
2022/11/11 05:52:17;;;;;;;14.45;7.38;;;10.20;99.90;;;;;;4148604;28;20180;-92
2022/11/11 05:54:37;;;;;;;16.70;7.63;;;10.20;99.90;;;;;;4149049;28;20219;-92
2022/11/11 05:56:57;;;;;;;17.63;7.43;;;10.30;99.90;;;;;;4148238;28;20188;-92
2022/11/11 05:59:16;;;;;;;12.13;7.28;;;10.40;99.90;;;;;;4148535;28;20236;-93
2022/11/11 06:01:36;;;;;;;16.27;7.78;;;10.50;99.90;;;;;;4148640;28;20215;-93
2022/11/11 06:03:56;;;;;;;13.45;7.57;;;10.70;99.90;;;;;;4148413;28;20656;-93
2022/11/11 06:06:15;;;;;;;12.32;7.45;;;10.50;99.90;;;;;;4148439;28;20728;-93
2022/11/11 06:08:34;;;;;;;18.23;8.13;;;10.20;99.90;;;;;;4148320;28;20593;-92
2022/11/11 06:10:53;;;;;;;13.98;7.75;;;10.10;99.90;;;;;;4148033;28;20180;-93
2022/11/11 06:13:14;;;;;;;11.63;6.78;;;10.20;99.90;;;;;;4148296;28;20285;-91
2022/11/11 06:15:36;;;;;;;12.55;7.05;;;10.30;99.90;;;;;;4148130;28;20660;-91
2022/11/11 06:17:55;;;;;;;12.27;7.03;;;10.00;99.90;;;;;;4148345;28;20215;-93
2022/11/11 06:20:15;;;;;;;12.68;7.07;;;10.00;99.90;;;;;;4147989;28;20291;-91
2022/11/11 06:27:50;;;;;;;14.07;6.15;;;9.90;99.90;;;;;;4135006;28;20189;-93
2022/11/11 06:30:10;;;;;;;19.77;7.00;;;9.90;99.90;;;;;;4148304;28;20619;-93
2022/11/11 06:32:29;;;;;;;17.43;6.77;;;10.00;99.90;;;;;;4147957;28;20247;-93
2022/11/11 06:34:48;;;;;;;14.17;6.80;;;10.10;99.90;;;;;;4147837;28;20259;-92
2022/11/11 06:37:07;;;;;;;13.98;6.80;;;9.90;99.90;;;;;;4148284;28;20219;-92
2022/11/11 06:39:26;;;;;;;12.30;6.82;;;10.00;99.90;;;;;;4147890;28;20564;-93
2022/11/11 06:41:46;;;;;;;16.50;7.47;;;10.00;99.90;;;;;;4147979;28;20264;-92
2022/11/11 06:44:05;;;;;;;13.80;7.53;;;10.00;99.90;;;;;;4147667;28;20320;-91
2022/11/11 06:46:25;;;;;;;14.82;7.18;;;9.90;99.90;;;;;;4147869;28;20211;-92
2022/11/11 06:48:45;;;;;;;14.82;7.97;;;9.80;99.90;;;;;;4147755;28;20235;-92
2022/11/11 06:51:05;;;;;;;19.55;7.40;;;9.70;99.90;;;;;;4147713;28;20184;-90
2022/11/11 06:53:27;;;;;;;19.87;7.60;;;9.90;99.90;;;;;;4147551;28;20199;-91
2022/11/11 06:55:47;;;;;;;17.30;8.32;;;9.90;99.90;;;;;;4147778;28;20692;-92
2022/11/11 06:58:16;;;;;;;12.20;8.00;;;9.90;99.90;;;;;;4147446;28;20739;-92
2022/11/11 07:00:37;;;;;;;20.02;8.75;;;9.90;99.90;;;;;;4147351;28;20179;-93
2022/11/11 07:02:56;;;;;;;19.83;8.10;;;9.80;99.90;;;;;;4147388;28;20211;-90
2022/11/11 07:05:15;;;;;;;15.43;8.38;;;9.90;99.90;;;;;;4147265;28;20654;-92
2022/11/11 07:07:34;;;;;;;13.80;7.57;;;10.00;99.90;;;;;;4147563;28;20303;-93
2022/11/11 07:09:56;;;;;;;15.98;7.88;;;9.80;99.90;;;;;;4147670;28;20753;-92
2022/11/11 07:12:16;;;;;;;15.02;6.90;;;10.00;99.90;;;;;;4147356;28;20634;-92
2022/11/11 07:14:35;;;;;;;14.75;8.50;;;10.10;99.90;;;;;;4147395;28;20176;-91
2022/11/11 07:16:55;;;;;;;15.80;6.95;;;9.90;99.90;;;;;;4147046;28;20688;-92
2022/11/11 07:19:14;;;;;;;11.82;7.53;;;9.80;99.90;;;;;;4147307;28;20280;-94
2022/11/11 07:21:34;;;;;;;14.60;6.82;;;9.90;99.90;;;;;;4147151;28;20308;-90
2022/11/11 07:23:53;;;;;;;13.52;7.13;;;9.90;99.90;;;;;;4147053;28;20251;-93
2022/11/11 07:26:12;;;;;;;15.10;6.80;;;9.90;99.90;;;;;;4147028;28;20180;-91
2022/11/11 07:28:31;;;;;;;14.48;6.80;;;10.10;99.90;;;;;;4147290;28;20263;-91
2022/11/11 07:30:50;;;;;;;17.10;7.50;;;10.00;99.90;;;;;;4146929;28;20180;-90
2022/11/11 07:33:09;;;;;;;11.40;6.65;;;9.90;99.90;;;;;;4146907;28;20204;-91
2022/11/11 07:35:28;;;;;;;15.37;7.10;;;9.90;99.90;;;;;;4146642;28;20216;-92
2022/11/11 07:37:48;;;;;;;17.35;6.95;;;9.90;99.90;;;;;;4146891;28;20215;-92
2022/11/11 07:40:09;;;;;;;12.55;7.28;;;9.90;99.90;;;;;;4147141;28;20699;-91
2022/11/11 07:42:29;;;;;;;13.13;6.67;;;10.00;99.90;;;;;;4147105;28;20702;-91
2022/11/11 07:44:48;;;;;;;15.70;7.13;;;10.10;99.90;;;;;;4146994;28;20176;-92
2022/11/11 07:47:07;;;;;;;10.52;6.55;;;10.20;99.90;;;;;;4146902;28;20184;-91
2022/11/11 07:49:26;;;;;;;14.88;7.10;;;10.20;99.90;;;;;;4146662;28;20246;-92
2022/11/11 07:51:45;;;;;;;14.55;7.07;;;10.20;99.90;;;;;;4146862;28;20684;-93
2022/11/11 07:54:04;;;;;;;14.82;6.32;;;10.30;99.90;;;;;;4146946;28;20204;-93
2022/11/11 07:56:23;;;;;;;13.85;6.68;;;10.30;99.90;;;;;;4146980;28;20234;-90
2022/11/11 07:58:42;;;;;;;11.45;6.50;;;10.20;99.90;;;;;;4146647;28;20222;-92
2022/11/11 08:01:01;;;;;;;16.17;7.20;;;10.20;99.90;;;;;;4146690;28;20188;-93
2022/11/11 08:03:20;;;;;;;12.43;7.07;;;10.40;99.90;;;;;;4146519;28;20203;-94
2022/11/11 08:05:40;;;;;;;17.63;6.50;;;10.40;99.90;;;;;;4146594;28;20187;-92
2022/11/11 08:08:06;;;;;;;10.88;6.53;;;10.40;99.90;;;;;;4146429;28;20251;-92
2022/11/11 08:10:26;;;;;;;16.77;6.93;;;10.60;99.90;;;;;;4146402;28;20204;-93
2022/11/11 08:15:22;;;;;;;15.40;6.80;;;10.40;99.90;;;;;;4133451;28;20184;-95
2022/11/11 08:17:42;;;;;;;12.60;7.15;;;10.40;99.90;;;;;;4146263;28;20267;-94
2022/11/11 08:20:01;;;;;;;12.95;6.57;;;10.40;99.90;;;;;;4146558;28;20183;-92
2022/11/11 08:22:23;;;;;;;11.85;7.47;;;10.40;99.90;;;;;;4146215;28;20212;-92
2022/11/11 08:24:42;;;;;;;13.23;7.40;;;10.60;99.90;;;;;;4145924;28;20231;-91
2022/11/11 08:27:01;;;;;;;12.85;7.22;;;10.50;99.90;;;;;;4146076;28;20191;-93
2022/11/11 08:29:20;;;;;;;17.58;7.75;;;10.60;99.90;;;;;;4146515;28;20549;-92
2022/11/11 08:31:39;;;;;;;17.40;8.13;;;10.40;99.90;;;;;;4146600;28;20183;-93
2022/11/11 08:33:59;;;;;;;16.27;7.90;;;10.40;99.90;;;;;;4145938;28;20203;-91
2022/11/11 08:36:18;;;;;;;14.98;7.53;;;10.40;99.90;;;;;;4145872;28;20223;-92
2022/11/11 08:38:38;;;;;;;14.75;7.97;;;10.60;99.90;;;;;;4145876;28;20717;-91
2022/11/11 08:41:01;;;;;;;15.30;7.07;;;10.60;99.90;;;;;;4146511;28;20183;-90
2022/11/11 08:43:22;;;;;;;17.73;8.45;;;10.60;99.90;;;;;;4149541;28;20239;-92
2022/11/11 08:45:41;;;;;;;13.32;7.82;;;10.60;99.90;;;;;;4147130;28;20708;-91
2022/11/11 08:48:01;;;;;;;17.42;8.38;;;10.70;99.90;;;;;;4146261;28;20248;-93
2022/11/11 08:50:20;;;;;;;13.13;7.60;;;10.80;99.90;;;;;;4146280;28;20227;-94
2022/11/11 08:52:47;;;;;;;16.67;7.55;;;10.90;99.90;;;;;;4146332;28;20198;-94
2022/11/11 08:55:06;;;;;;;16.70;8.18;;;10.80;99.90;;;;;;4146505;28;20220;-91
2022/11/11 08:57:26;;;;;;;14.32;8.32;;;11.00;99.90;;;;;;4146206;28;20215;-92
2022/11/11 08:59:46;;;;;;;16.13;7.68;;;11.10;99.90;;;;;;4146322;28;20187;-92
2022/11/11 09:02:05;;;;;;;17.20;8.20;;;11.00;99.90;;;;;;4150483;28;20187;-92
2022/11/11 09:04:25;;;;;;;17.20;8.43;;;11.00;99.90;;;;;;4151674;28;20182;-92
2022/11/11 09:06:44;;;;;;;15.73;8.75;;;10.80;99.90;;;;;;4151814;28;20602;-93
2022/11/11 09:09:04;;;;;;;14.13;7.57;;;10.80;99.90;;;;;;4150504;28;20207;-92
2022/11/11 09:11:23;;;;;;;20.38;7.97;;;10.90;99.90;;;;;;4150051;28;20192;-92
2022/11/11 09:13:42;;;;;;;13.98;8.60;;;10.90;99.90;;;;;;4136674;28;20661;-91
2022/11/11 09:16:02;;;;;;;14.77;7.72;;;11.10;99.90;;;;;;4149048;28;20248;-92
2022/11/11 09:18:21;;;;;;;15.98;7.95;;;11.20;99.90;;;;;;4149219;28;20267;-92
2022/11/11 09:20:40;;;;;;;15.45;8.05;;;11.20;99.90;;;;;;4149238;28;20712;-91
2022/11/11 09:22:59;;;;;;;17.00;8.38;;;11.40;99.90;;;;;;4149227;28;20279;-92
2022/11/11 09:25:19;;;;;;;16.23;8.45;;;11.50;99.90;;;;;;4148937;28;20188;-93
2022/11/11 09:27:38;;;;;;;15.13;8.10;;;11.60;99.90;;;;;;4148873;28;20242;-91
2022/11/11 09:29:58;;;;;;;18.40;8.57;;;11.90;99.90;;;;;;4149472;28;20192;-93
2022/11/11 09:32:17;;;;;;;13.57;7.40;;;11.80;99.90;;;;;;4148987;28;20192;-90
2022/11/11 09:34:36;;;;;;;14.27;6.85;;;11.70;99.90;;;;;;4148868;28;20235;-91
2022/11/11 09:36:56;;;;;;;14.80;7.95;;;11.50;99.90;;;;;;4149159;28;20231;-93
2022/11/11 09:39:15;;;;;;;12.57;6.85;;;11.60;99.90;;;;;;4148747;28;20196;-92
2022/11/11 09:42:13;;;;;;;12.98;6.90;;;11.60;99.90;;;;;;4148928;28;20211;-94
2022/11/11 09:45:00;;;;;;;13.20;6.43;;;11.80;99.90;;;;;;4145514;28;20187;-92
2022/11/11 09:47:25;;;;;;;13.98;7.05;;;11.80;99.90;;;;;;4135406;28;20747;-92
2022/11/11 09:50:08;;;;;;;11.25;6.93;;;11.70;99.90;;;;;;4135177;28;20180;-91
2022/11/11 09:52:43;;;;;;;11.65;6.18;;;11.70;99.90;;;;;;4135110;28;20240;-91
2022/11/11 09:55:13;;;;;;;10.23;6.57;;;11.80;99.90;;;;;;4148953;28;20219;-93
2022/11/11 09:58:16;;;;;;;10.23;6.50;;;12.10;99.90;;;;;;4148630;28;20231;-92
2022/11/11 10:00:39;;;;;;;11.82;7.18;;;12.30;99.90;;;;;;4134086;28;20220;-92
2022/11/11 10:03:09;;;;;;;13.60;7.03;;;12.50;99.90;;;;;;4146206;28;20255;-93
2022/11/11 10:05:47;;;;;;;14.55;6.88;;;12.50;99.90;;;;;;4134628;28;20200;-92
2022/11/11 10:08:24;;;;;;;14.20;7.63;;;12.70;99.90;;;;;;4134829;28;20284;-92
2022/11/11 10:10:49;;;;;;;15.57;6.88;;;12.80;99.90;;;;;;4148500;28;20230;-92
2022/11/11 10:13:16;;;;;;;12.73;7.20;;;13.10;99.90;;;;;;4148337;28;20588;-91
2022/11/11 10:16:02;;;;;;;13.82;7.32;;;13.00;99.90;;;;;;4148431;28;20187;-91
2022/11/11 10:19:01;;;;;;;14.25;7.15;;;12.90;99.90;;;;;;4147160;28;20286;-92
2022/11/11 10:21:34;;;;;;;9.73;6.90;;;12.50;99.90;;;;;;4134358;28;20232;-91
2022/11/11 10:23:58;;;;;;;11.93;7.32;;;12.80;99.90;;;;;;4134330;28;20208;-91
2022/11/11 10:26:20;;;;;;;11.10;7.32;;;12.70;99.90;;;;;;4147901;28;20264;-93
2022/11/11 10:28:43;;;;;;;12.35;7.03;;;12.70;99.90;;;;;;4148175;28;20196;-92
2022/11/11 10:31:09;;;;;;;13.85;8.18;;;12.80;99.90;;;;;;4147681;28;20180;-92
2022/11/11 10:33:37;;;;;;;10.98;7.45;;;13.10;99.90;;;;;;4147823;28;20243;-91
2022/11/11 10:35:59;;;;;;;16.67;8.02;;;13.20;99.90;;;;;;4147843;28;20176;-91
2022/11/11 10:38:40;;;;;;;14.43;8.02;;;13.30;99.90;;;;;;4147873;28;20258;-90
2022/11/11 10:41:26;;;;;;;14.63;7.38;;;13.30;99.90;;;;;;4133816;28;20243;-91
2022/11/11 10:43:48;;;;;;;16.73;8.20;;;13.40;99.90;;;;;;4134351;28;20212;-91
2022/11/11 10:46:11;;;;;;;13.43;7.15;;;13.80;99.90;;;;;;4148752;28;20233;-91
2022/11/11 10:49:09;;;;;;;12.73;6.95;;;13.60;99.90;;;;;;4134507;28;20285;-91
2022/11/11 10:51:48;;;;;;;18.42;7.10;;;13.40;99.90;;;;;;4134103;28;20212;-92
2022/11/11 10:54:23;;;;;;;11.30;6.85;;;13.40;99.90;;;;;;4147903;28;20278;-92
2022/11/11 10:57:09;;;;;;;12.93;6.18;;;13.40;99.90;;;;;;4147943;28;20180;-93
2022/11/11 10:59:52;;;;;;;12.60;6.40;;;13.60;99.90;;;;;;4148349;28;20199;-90
2022/11/11 11:02:47;;;;;;;12.55;6.55;;;13.70;99.90;;;;;;4147940;28;20213;-92
2022/11/11 11:05:29;;;;;;;8.45;5.03;;;14.00;99.90;;;;;;4147696;28;20211;-90
2022/11/11 11:07:53;;;;;;;7.00;4.28;;;14.10;99.90;;;;;;4147421;28;20188;-93
2022/11/11 11:10:24;;;;;;;6.15;4.10;;;14.10;99.90;;;;;;4147574;28;20792;-92
2022/11/11 11:13:06;;;;;;;8.07;3.65;;;14.00;99.90;;;;;;4147489;28;20203;-92
2022/11/11 11:15:28;;;;;;;9.18;4.20;;;14.20;99.90;;;;;;4147536;28;20206;-92
2022/11/11 11:18:14;;;;;;;11.00;4.28;;;14.10;99.90;;;;;;4147451;28;20720;-93
2022/11/11 11:20:33;;;;;;;8.05;4.10;;;14.20;99.90;;;;;;4148287;28;20246;-93
2022/11/11 11:23:01;;;;;;;10.98;3.55;;;14.10;99.90;;;;;;4147950;28;20258;-91
2022/11/11 11:25:22;;;;;;;6.28;4.10;;;14.00;99.90;;;;;;4147123;28;20185;-91
2022/11/11 11:27:41;;;;;;;9.93;4.13;;;14.10;99.90;;;;;;4147334;28;20218;-93
2022/11/11 11:30:11;;;;;;;11.88;4.85;;;14.20;99.90;;;;;;4147355;28;20222;-92
2022/11/11 11:32:31;;;;;;;7.38;4.30;;;14.60;99.90;;;;;;4147666;28;20669;-92
2022/11/11 11:34:53;;;;;;;7.13;4.30;;;14.80;99.90;;;;;;4147770;28;20203;-92
2022/11/11 11:37:12;;;;;;;10.82;4.63;;;14.70;99.90;;;;;;4147289;28;20239;-92
2022/11/11 11:39:37;;;;;;;7.22;4.28;;;14.60;99.90;;;;;;4147324;28;20585;-93
2022/11/11 11:41:56;;;;;;;9.23;4.38;;;14.60;99.90;;;;;;4147203;28;20672;-91
2022/11/11 11:44:25;;;;;;;8.98;4.65;;;14.40;99.90;;;;;;4147212;28;20187;-92
2022/11/11 11:46:45;;;;;;;9.07;4.20;;;14.40;99.90;;;;;;4133236;28;20224;-90
2022/11/11 11:49:08;;;;;;;8.25;3.88;;;14.40;99.90;;;;;;4148938;28;20203;-93
2022/11/11 11:51:38;;;;;;;8.40;4.03;;;14.60;99.90;;;;;;4134137;28;20177;-93
2022/11/11 11:54:06;;;;;;;10.65;4.05;;;14.50;99.90;;;;;;4147232;28;20264;-92
2022/11/11 11:56:39;;;;;;;8.07;3.80;;;14.60;99.90;;;;;;4133284;28;20192;-93
2022/11/11 11:59:02;;;;;;;6.88;3.50;;;14.60;99.90;;;;;;4147138;28;20239;-95
2022/11/11 12:01:44;;;;;;;7.00;3.17;;;14.50;99.90;;;;;;4133390;28;20276;-91
2022/11/11 12:04:26;;;;;;;6.15;3.50;;;14.60;99.90;;;;;;4132902;28;20255;-92
2022/11/11 12:06:55;;;;;;;6.10;2.83;;;14.70;99.90;;;;;;4132964;28;20300;-93
2022/11/11 12:09:23;;;;;;;5.32;2.90;;;14.80;99.90;;;;;;4136244;28;20229;-93
2022/11/11 12:11:59;;;;;;;5.22;3.40;;;14.80;99.90;;;;;;4132681;28;20184;-91
2022/11/11 12:14:53;;;;;;;6.40;3.30;;;14.80;99.90;;;;;;4132857;28;20187;-92
2022/11/11 12:17:39;;;;;;;6.95;3.28;;;15.00;99.90;;;;;;4146756;28;20220;-91
2022/11/11 12:20:03;;;;;;;7.70;3.33;;;15.20;99.90;;;;;;4146749;28;20282;-91
2022/11/11 12:22:35;;;;;;;6.07;3.30;;;15.00;99.90;;;;;;4132614;28;20201;-92
2022/11/11 12:25:33;;;;;;;3.38;2.42;;;15.00;99.90;;;;;;4146707;28;20188;-91
2022/11/11 12:28:06;;;;;;;6.00;2.75;;;15.10;99.90;;;;;;4127841;28;20217;-92
2022/11/11 12:30:28;;;;;;;6.70;3.05;;;15.00;99.90;;;;;;4132308;28;20265;-90
2022/11/11 12:33:10;;;;;;;6.25;2.55;;;14.90;99.90;;;;;;4146531;28;20564;-90
2022/11/11 12:35:44;;;;;;;4.85;2.40;;;15.10;99.90;;;;;;4132240;28;20748;-91
2022/11/11 12:38:26;;;;;;;4.80;2.47;;;15.20;99.90;;;;;;4132425;28;20693;-92
2022/11/11 12:41:03;;;;;;;6.22;2.40;;;15.40;99.90;;;;;;4132733;28;20196;-93
2022/11/11 12:43:50;;;;;;;4.95;2.13;;;15.30;99.90;;;;;;4132284;28;20211;-89
2022/11/11 12:46:22;;;;;;;6.45;2.85;;;15.10;99.90;;;;;;4132400;28;20185;-89
2022/11/11 12:49:00;;;;;;;7.82;2.83;;;14.90;99.90;;;;;;4132533;28;20183;-88
2022/11/11 12:51:26;;;;;;;5.10;2.38;;;15.20;99.90;;;;;;4146714;28;20222;-88
2022/11/11 12:54:12;;;;;;;5.70;2.60;;;15.10;99.90;;;;;;4133191;28;20279;-88
2022/11/11 12:57:07;;;;;;;9.05;2.60;;;15.00;99.90;;;;;;4146446;28;20192;-87
2022/11/11 12:59:33;;;;;;;5.05;2.80;;;15.00;99.90;;;;;;4132624;28;20192;-89
2022/11/11 13:02:31;;;;;;;6.47;2.80;;;15.00;99.90;;;;;;4146864;28;20196;-89
2022/11/11 13:05:08;;;;;;;9.77;3.00;;;14.90;99.90;;;;;;4146364;28;20225;-89
2022/11/11 13:07:38;;;;;;;7.10;3.63;;;14.90;99.90;;;;;;4132682;28;20712;-88
2022/11/11 13:10:12;;;;;;;12.25;4.25;;;15.30;99.90;;;;;;4132914;28;20309;-89
2022/11/11 13:12:48;;;;;;;7.80;4.15;;;15.10;99.90;;;;;;4132846;28;20180;-89
2022/11/11 13:15:20;;;;;;;9.98;4.20;;;15.10;99.90;;;;;;4146459;28;20227;-89
2022/11/11 13:17:39;;;;;;;7.68;3.97;;;15.20;99.90;;;;;;4149195;28;20247;-89
2022/11/11 13:20:17;;;;;;;9.77;4.38;;;15.30;99.90;;;;;;4146900;28;20713;-89
2022/11/11 13:22:36;;;;;;;11.73;4.00;;;15.20;99.90;;;;;;4146127;28;20251;-88
2022/11/11 13:24:57;;;;;;;9.68;3.75;;;15.00;99.90;;;;;;4146701;28;20191;-89
2022/11/11 13:27:32;;;;;;;8.70;3.95;;;14.80;99.90;;;;;;4146676;28;20192;-88
2022/11/11 13:30:06;;;;;;;13.10;3.97;;;15.00;99.90;;;;;;4145875;28;20707;-89
2022/11/11 13:32:54;;;;;;;7.38;3.33;;;15.00;99.90;;;;;;4145965;28;20236;-89
2022/11/11 13:35:33;;;;;;;12.05;3.97;;;14.90;99.90;;;;;;4145802;28;20727;-88
2022/11/11 13:37:52;;;;;;;8.68;3.08;;;14.80;99.90;;;;;;4145987;28;20254;-89
2022/11/11 13:40:23;;;;;;;10.50;3.03;;;14.80;99.90;;;;;;4146253;28;20195;-88
2022/11/11 13:42:50;;;;;;;12.18;3.42;;;14.60;99.90;;;;;;4132056;28;20200;-88
2022/11/11 13:45:31;;;;;;;6.85;3.20;;;14.70;99.90;;;;;;4146111;28;20180;-89
2022/11/11 13:47:51;;;;;;;6.95;3.25;;;14.70;99.90;;;;;;4148029;28;20692;-88